sensor_id;sensor_type;location;lat;lon;timestamp;P1;durP1;ratioP1;P2;durP2;ratioP2
12758;SDS011;20944;47.048;15.390;2023-04-25T00:00:44;0.77;;;0.50;;
12758;SDS011;20944;47.048;15.390;2023-04-25T00:03:12;0.83;;;0.77;;
12758;SDS011;20944;47.048;15.390;2023-04-25T00:05:41;0.40;;;0.40;;
12758;SDS011;20944;47.048;15.390;2023-04-25T00:08:10;0.50;;;0.30;;
12758;SDS011;20944;47.048;15.390;2023-04-25T00:10:40;0.70;;;0.40;;
12758;SDS011;20944;47.048;15.390;2023-04-25T00:13:08;0.50;;;0.40;;
12758;SDS011;20944;47.048;15.390;2023-04-25T00:15:37;0.73;;;0.50;;
12758;SDS011;20944;47.048;15.390;2023-04-25T00:18:08;0.43;;;0.40;;
12758;SDS011;20944;47.048;15.390;2023-04-25T00:20:37;0.50;;;0.30;;
12758;SDS011;20944;47.048;15.390;2023-04-25T00:23:05;0.40;;;0.20;;
12758;SDS011;20944;47.048;15.390;2023-04-25T00:25:34;1.67;;;0.17;;
12758;SDS011;20944;47.048;15.390;2023-04-25T00:28:03;0.33;;;0.20;;
12758;SDS011;20944;47.048;15.390;2023-04-25T00:30:31;0.57;;;0.30;;
12758;SDS011;20944;47.048;15.390;2023-04-25T00:33:00;0.67;;;0.37;;
12758;SDS011;20944;47.048;15.390;2023-04-25T00:35:28;0.60;;;0.30;;
12758;SDS011;20944;47.048;15.390;2023-04-25T00:37:56;0.60;;;0.40;;
12758;SDS011;20944;47.048;15.390;2023-04-25T00:40:24;0.70;;;0.60;;
12758;SDS011;20944;47.048;15.390;2023-04-25T00:42:52;1.70;;;1.10;;
12758;SDS011;20944;47.048;15.390;2023-04-25T00:45:22;1.20;;;0.97;;
12758;SDS011;20944;47.048;15.390;2023-04-25T00:47:55;1.93;;;1.30;;
12758;SDS011;20944;47.048;15.390;2023-04-25T00:50:24;2.97;;;1.00;;
12758;SDS011;20944;47.048;15.390;2023-04-25T00:52:52;1.90;;;1.10;;
12758;SDS011;20944;47.048;15.390;2023-04-25T00:55:21;1.67;;;1.23;;
12758;SDS011;20944;47.048;15.390;2023-04-25T00:57:49;2.77;;;1.40;;
12758;SDS011;20944;47.048;15.390;2023-04-25T01:00:18;1.60;;;1.50;;
12758;SDS011;20944;47.048;15.390;2023-04-25T01:02:48;3.70;;;1.50;;
12758;SDS011;20944;47.048;15.390;2023-04-25T01:05:17;2.33;;;1.73;;
12758;SDS011;20944;47.048;15.390;2023-04-25T01:07:46;2.97;;;1.77;;
12758;SDS011;20944;47.048;15.390;2023-04-25T01:10:14;2.50;;;1.80;;
12758;SDS011;20944;47.048;15.390;2023-04-25T01:12:43;2.10;;;1.80;;
12758;SDS011;20944;47.048;15.390;2023-04-25T01:15:11;2.63;;;1.87;;
12758;SDS011;20944;47.048;15.390;2023-04-25T01:17:39;2.40;;;2.10;;
12758;SDS011;20944;47.048;15.390;2023-04-25T01:20:11;3.30;;;1.67;;
12758;SDS011;20944;47.048;15.390;2023-04-25T01:22:41;3.70;;;2.20;;
12758;SDS011;20944;47.048;15.390;2023-04-25T01:25:09;2.77;;;2.00;;
12758;SDS011;20944;47.048;15.390;2023-04-25T01:27:38;4.90;;;2.30;;
12758;SDS011;20944;47.048;15.390;2023-04-25T01:30:07;4.07;;;1.70;;
12758;SDS011;20944;47.048;15.390;2023-04-25T01:32:36;3.07;;;2.10;;
12758;SDS011;20944;47.048;15.390;2023-04-25T01:35:06;2.43;;;1.90;;
12758;SDS011;20944;47.048;15.390;2023-04-25T01:37:36;3.27;;;2.43;;
12758;SDS011;20944;47.048;15.390;2023-04-25T01:40:06;5.93;;;2.00;;
12758;SDS011;20944;47.048;15.390;2023-04-25T01:42:36;2.40;;;1.80;;
12758;SDS011;20944;47.048;15.390;2023-04-25T01:45:09;3.03;;;2.00;;
12758;SDS011;20944;47.048;15.390;2023-04-25T01:47:39;3.30;;;2.50;;
12758;SDS011;20944;47.048;15.390;2023-04-25T01:50:09;3.40;;;2.53;;
12758;SDS011;20944;47.048;15.390;2023-04-25T01:52:38;3.73;;;2.27;;
12758;SDS011;20944;47.048;15.390;2023-04-25T01:55:08;5.40;;;3.07;;
12758;SDS011;20944;47.048;15.390;2023-04-25T01:57:37;3.17;;;1.77;;
12758;SDS011;20944;47.048;15.390;2023-04-25T02:00:05;3.80;;;2.10;;
12758;SDS011;20944;47.048;15.390;2023-04-25T02:02:35;7.03;;;2.53;;
12758;SDS011;20944;47.048;15.390;2023-04-25T02:05:04;2.63;;;1.67;;
12758;SDS011;20944;47.048;15.390;2023-04-25T02:07:33;3.37;;;1.87;;
12758;SDS011;20944;47.048;15.390;2023-04-25T02:10:01;6.27;;;2.13;;
12758;SDS011;20944;47.048;15.390;2023-04-25T02:12:30;4.13;;;2.50;;
12758;SDS011;20944;47.048;15.390;2023-04-25T02:14:59;3.03;;;2.00;;
12758;SDS011;20944;47.048;15.390;2023-04-25T02:17:27;8.57;;;2.23;;
12758;SDS011;20944;47.048;15.390;2023-04-25T02:19:55;4.13;;;2.57;;
12758;SDS011;20944;47.048;15.390;2023-04-25T02:22:23;2.67;;;1.97;;
12758;SDS011;20944;47.048;15.390;2023-04-25T02:24:52;7.97;;;2.40;;
12758;SDS011;20944;47.048;15.390;2023-04-25T02:27:22;3.47;;;1.77;;
12758;SDS011;20944;47.048;15.390;2023-04-25T02:29:51;3.20;;;1.90;;
12758;SDS011;20944;47.048;15.390;2023-04-25T02:32:20;4.87;;;1.70;;
12758;SDS011;20944;47.048;15.390;2023-04-25T02:34:48;4.90;;;1.63;;
12758;SDS011;20944;47.048;15.390;2023-04-25T02:37:16;3.37;;;1.30;;
12758;SDS011;20944;47.048;15.390;2023-04-25T02:39:44;3.43;;;1.60;;
12758;SDS011;20944;47.048;15.390;2023-04-25T02:42:12;2.80;;;1.40;;
12758;SDS011;20944;47.048;15.390;2023-04-25T02:44:40;1.70;;;1.20;;
12758;SDS011;20944;47.048;15.390;2023-04-25T02:47:10;1.63;;;1.20;;
12758;SDS011;20944;47.048;15.390;2023-04-25T02:49:38;2.23;;;1.43;;
12758;SDS011;20944;47.048;15.390;2023-04-25T02:52:06;2.53;;;1.50;;
12758;SDS011;20944;47.048;15.390;2023-04-25T02:54:35;2.53;;;1.63;;
12758;SDS011;20944;47.048;15.390;2023-04-25T02:57:03;10.80;;;1.47;;
12758;SDS011;20944;47.048;15.390;2023-04-25T02:59:31;2.43;;;1.50;;
12758;SDS011;20944;47.048;15.390;2023-04-25T03:01:59;2.30;;;1.70;;
12758;SDS011;20944;47.048;15.390;2023-04-25T03:04:29;2.47;;;1.57;;
12758;SDS011;20944;47.048;15.390;2023-04-25T03:06:58;1.90;;;1.40;;
12758;SDS011;20944;47.048;15.390;2023-04-25T03:09:26;2.80;;;1.43;;
12758;SDS011;20944;47.048;15.390;2023-04-25T03:11:54;3.13;;;1.50;;
12758;SDS011;20944;47.048;15.390;2023-04-25T03:14:22;3.37;;;1.30;;
12758;SDS011;20944;47.048;15.390;2023-04-25T03:16:50;2.43;;;1.50;;
12758;SDS011;20944;47.048;15.390;2023-04-25T03:19:18;2.33;;;0.90;;
12758;SDS011;20944;47.048;15.390;2023-04-25T03:21:48;3.13;;;1.33;;
12758;SDS011;20944;47.048;15.390;2023-04-25T03:24:16;2.37;;;1.40;;
12758;SDS011;20944;47.048;15.390;2023-04-25T03:26:44;1.83;;;1.33;;
12758;SDS011;20944;47.048;15.390;2023-04-25T03:29:12;2.53;;;1.63;;
12758;SDS011;20944;47.048;15.390;2023-04-25T03:31:41;2.77;;;1.47;;
12758;SDS011;20944;47.048;15.390;2023-04-25T03:34:09;1.90;;;1.20;;
12758;SDS011;20944;47.048;15.390;2023-04-25T03:36:37;2.37;;;1.23;;
12758;SDS011;20944;47.048;15.390;2023-04-25T03:39:08;2.30;;;1.33;;
12758;SDS011;20944;47.048;15.390;2023-04-25T03:41:36;3.53;;;1.40;;
12758;SDS011;20944;47.048;15.390;2023-04-25T03:44:05;1.60;;;1.20;;
12758;SDS011;20944;47.048;15.390;2023-04-25T03:46:33;1.93;;;1.00;;
12758;SDS011;20944;47.048;15.390;2023-04-25T03:49:01;1.87;;;1.17;;
12758;SDS011;20944;47.048;15.390;2023-04-25T03:51:29;1.33;;;0.93;;
12758;SDS011;20944;47.048;15.390;2023-04-25T03:53:57;0.80;;;0.80;;
12758;SDS011;20944;47.048;15.390;2023-04-25T03:56:27;1.17;;;0.90;;
12758;SDS011;20944;47.048;15.390;2023-04-25T03:58:55;0.97;;;0.53;;
12758;SDS011;20944;47.048;15.390;2023-04-25T04:01:23;1.60;;;0.50;;
12758;SDS011;20944;47.048;15.390;2023-04-25T04:06:20;0.70;;;0.70;;
12758;SDS011;20944;47.048;15.390;2023-04-25T04:08:48;1.70;;;1.07;;
12758;SDS011;20944;47.048;15.390;2023-04-25T04:11:16;1.57;;;1.43;;
12758;SDS011;20944;47.048;15.390;2023-04-25T04:13:46;1.50;;;1.03;;
12758;SDS011;20944;47.048;15.390;2023-04-25T04:16:14;2.63;;;1.23;;
12758;SDS011;20944;47.048;15.390;2023-04-25T04:18:42;2.40;;;1.30;;
12758;SDS011;20944;47.048;15.390;2023-04-25T04:21:12;1.93;;;1.37;;
12758;SDS011;20944;47.048;15.390;2023-04-25T04:23:41;2.80;;;1.70;;
12758;SDS011;20944;47.048;15.390;2023-04-25T04:26:09;2.67;;;1.10;;
12758;SDS011;20944;47.048;15.390;2023-04-25T04:28:39;1.43;;;1.33;;
12758;SDS011;20944;47.048;15.390;2023-04-25T04:31:08;3.03;;;1.20;;
12758;SDS011;20944;47.048;15.390;2023-04-25T04:33:38;1.70;;;1.60;;
12758;SDS011;20944;47.048;15.390;2023-04-25T04:36:06;3.60;;;1.83;;
12758;SDS011;20944;47.048;15.390;2023-04-25T04:38:34;4.17;;;1.83;;
12758;SDS011;20944;47.048;15.390;2023-04-25T04:41:06;6.07;;;2.27;;
12758;SDS011;20944;47.048;15.390;2023-04-25T04:43:35;4.70;;;2.43;;
12758;SDS011;20944;47.048;15.390;2023-04-25T04:46:03;10.67;;;2.40;;
12758;SDS011;20944;47.048;15.390;2023-04-25T04:48:33;3.93;;;2.23;;
12758;SDS011;20944;47.048;15.390;2023-04-25T04:51:01;4.53;;;2.63;;
12758;SDS011;20944;47.048;15.390;2023-04-25T04:53:30;3.43;;;2.37;;
12758;SDS011;20944;47.048;15.390;2023-04-25T04:55:58;7.07;;;3.00;;
12758;SDS011;20944;47.048;15.390;2023-04-25T04:58:26;4.17;;;2.23;;
12758;SDS011;20944;47.048;15.390;2023-04-25T05:00:56;3.40;;;2.03;;
12758;SDS011;20944;47.048;15.390;2023-04-25T05:03:24;5.13;;;2.20;;
12758;SDS011;20944;47.048;15.390;2023-04-25T05:05:55;4.57;;;2.37;;
12758;SDS011;20944;47.048;15.390;2023-04-25T05:08:23;3.10;;;2.07;;
12758;SDS011;20944;47.048;15.390;2023-04-25T05:10:51;4.13;;;2.13;;
12758;SDS011;20944;47.048;15.390;2023-04-25T05:13:19;4.70;;;2.20;;
12758;SDS011;20944;47.048;15.390;2023-04-25T05:15:48;7.90;;;2.50;;
12758;SDS011;20944;47.048;15.390;2023-04-25T05:18:16;2.93;;;1.90;;
12758;SDS011;20944;47.048;15.390;2023-04-25T05:20:45;4.93;;;2.20;;
12758;SDS011;20944;47.048;15.390;2023-04-25T05:23:15;4.73;;;2.30;;
12758;SDS011;20944;47.048;15.390;2023-04-25T05:25:44;3.23;;;2.07;;
12758;SDS011;20944;47.048;15.390;2023-04-25T05:28:12;2.80;;;2.20;;
12758;SDS011;20944;47.048;15.390;2023-04-25T05:30:41;5.27;;;2.57;;
12758;SDS011;20944;47.048;15.390;2023-04-25T05:33:09;3.80;;;2.07;;
12758;SDS011;20944;47.048;15.390;2023-04-25T05:35:37;4.17;;;2.40;;
12758;SDS011;20944;47.048;15.390;2023-04-25T05:38:05;3.97;;;2.30;;
12758;SDS011;20944;47.048;15.390;2023-04-25T05:40:36;4.37;;;2.17;;
12758;SDS011;20944;47.048;15.390;2023-04-25T05:43:04;3.37;;;2.07;;
12758;SDS011;20944;47.048;15.390;2023-04-25T05:45:32;3.80;;;2.43;;
12758;SDS011;20944;47.048;15.390;2023-04-25T05:48:01;3.50;;;2.40;;
12758;SDS011;20944;47.048;15.390;2023-04-25T05:50:29;3.37;;;2.07;;
12758;SDS011;20944;47.048;15.390;2023-04-25T05:52:57;3.77;;;2.00;;
12758;SDS011;20944;47.048;15.390;2023-04-25T05:55:26;4.53;;;2.30;;
12758;SDS011;20944;47.048;15.390;2023-04-25T05:57:57;5.87;;;2.73;;
12758;SDS011;20944;47.048;15.390;2023-04-25T06:00:25;4.17;;;2.00;;
12758;SDS011;20944;47.048;15.390;2023-04-25T06:02:53;5.43;;;2.57;;
12758;SDS011;20944;47.048;15.390;2023-04-25T06:05:22;4.27;;;2.70;;
12758;SDS011;20944;47.048;15.390;2023-04-25T06:07:51;3.27;;;2.23;;
12758;SDS011;20944;47.048;15.390;2023-04-25T06:10:19;3.57;;;2.40;;
12758;SDS011;20944;47.048;15.390;2023-04-25T06:12:49;4.03;;;2.10;;
12758;SDS011;20944;47.048;15.390;2023-04-25T06:15:18;4.17;;;2.77;;
12758;SDS011;20944;47.048;15.390;2023-04-25T06:17:54;3.60;;;2.37;;
12758;SDS011;20944;47.048;15.390;2023-04-25T06:20:22;3.63;;;2.67;;
12758;SDS011;20944;47.048;15.390;2023-04-25T06:22:51;4.17;;;2.63;;
12758;SDS011;20944;47.048;15.390;2023-04-25T06:25:19;3.43;;;2.10;;
12758;SDS011;20944;47.048;15.390;2023-04-25T06:27:47;2.83;;;2.03;;
12758;SDS011;20944;47.048;15.390;2023-04-25T06:30:16;4.37;;;2.20;;
12758;SDS011;20944;47.048;15.390;2023-04-25T06:32:50;3.43;;;2.20;;
12758;SDS011;20944;47.048;15.390;2023-04-25T06:35:19;3.93;;;2.87;;
12758;SDS011;20944;47.048;15.390;2023-04-25T06:37:48;5.47;;;3.30;;
12758;SDS011;20944;47.048;15.390;2023-04-25T06:40:16;7.20;;;3.57;;
12758;SDS011;20944;47.048;15.390;2023-04-25T06:42:44;6.17;;;3.73;;
12758;SDS011;20944;47.048;15.390;2023-04-25T06:45:13;6.83;;;3.47;;
12758;SDS011;20944;47.048;15.390;2023-04-25T06:47:41;10.17;;;4.33;;
12758;SDS011;20944;47.048;15.390;2023-04-25T06:50:11;7.07;;;3.80;;
12758;SDS011;20944;47.048;15.390;2023-04-25T06:52:39;7.93;;;4.00;;
12758;SDS011;20944;47.048;15.390;2023-04-25T06:55:07;6.20;;;3.63;;
12758;SDS011;20944;47.048;15.390;2023-04-25T06:57:36;9.03;;;4.67;;
12758;SDS011;20944;47.048;15.390;2023-04-25T07:00:05;7.30;;;4.07;;
12758;SDS011;20944;47.048;15.390;2023-04-25T07:02:35;6.83;;;4.57;;
12758;SDS011;20944;47.048;15.390;2023-04-25T07:05:04;6.23;;;3.73;;
12758;SDS011;20944;47.048;15.390;2023-04-25T07:07:34;6.00;;;3.53;;
12758;SDS011;20944;47.048;15.390;2023-04-25T07:10:02;5.43;;;3.47;;
12758;SDS011;20944;47.048;15.390;2023-04-25T07:12:31;6.50;;;3.13;;
12758;SDS011;20944;47.048;15.390;2023-04-25T07:14:59;5.20;;;3.57;;
12758;SDS011;20944;47.048;15.390;2023-04-25T07:17:32;4.43;;;3.40;;
12758;SDS011;20944;47.048;15.390;2023-04-25T07:20:01;7.30;;;3.03;;
12758;SDS011;20944;47.048;15.390;2023-04-25T07:22:30;3.80;;;2.90;;
12758;SDS011;20944;47.048;15.390;2023-04-25T07:25:00;3.83;;;3.40;;
12758;SDS011;20944;47.048;15.390;2023-04-25T07:27:28;4.33;;;2.50;;
12758;SDS011;20944;47.048;15.390;2023-04-25T07:29:56;4.93;;;3.10;;
12758;SDS011;20944;47.048;15.390;2023-04-25T07:32:25;4.50;;;2.87;;
12758;SDS011;20944;47.048;15.390;2023-04-25T07:34:53;4.37;;;2.23;;
12758;SDS011;20944;47.048;15.390;2023-04-25T07:37:21;5.03;;;2.20;;
12758;SDS011;20944;47.048;15.390;2023-04-25T07:39:49;4.53;;;1.93;;
12758;SDS011;20944;47.048;15.390;2023-04-25T07:42:19;2.10;;;1.90;;
12758;SDS011;20944;47.048;15.390;2023-04-25T07:44:47;2.40;;;1.73;;
12758;SDS011;20944;47.048;15.390;2023-04-25T07:47:18;2.43;;;2.00;;
12758;SDS011;20944;47.048;15.390;2023-04-25T07:49:46;3.27;;;1.27;;
12758;SDS011;20944;47.048;15.390;2023-04-25T07:52:15;1.13;;;1.00;;
12758;SDS011;20944;47.048;15.390;2023-04-25T07:54:43;1.77;;;1.07;;
12758;SDS011;20944;47.048;15.390;2023-04-25T07:57:11;0.57;;;0.50;;
12758;SDS011;20944;47.048;15.390;2023-04-25T07:59:41;0.60;;;0.60;;
12758;SDS011;20944;47.048;15.390;2023-04-25T08:02:11;0.40;;;0.30;;
12758;SDS011;20944;47.048;15.390;2023-04-25T08:04:42;0.50;;;0.50;;
12758;SDS011;20944;47.048;15.390;2023-04-25T08:07:13;1.53;;;1.03;;
12758;SDS011;20944;47.048;15.390;2023-04-25T08:09:42;0.60;;;0.60;;
12758;SDS011;20944;47.048;15.390;2023-04-25T08:12:10;0.50;;;0.50;;
12758;SDS011;20944;47.048;15.390;2023-04-25T08:14:38;1.57;;;0.60;;
12758;SDS011;20944;47.048;15.390;2023-04-25T08:17:07;0.63;;;0.40;;
12758;SDS011;20944;47.048;15.390;2023-04-25T08:19:36;0.30;;;0.30;;
12758;SDS011;20944;47.048;15.390;2023-04-25T08:22:04;0.75;;;0.25;;
12758;SDS011;20944;47.048;15.390;2023-04-25T08:24:32;0.47;;;0.40;;
12758;SDS011;20944;47.048;15.390;2023-04-25T08:27:04;0.30;;;0.30;;
12758;SDS011;20944;47.048;15.390;2023-04-25T08:29:33;0.73;;;0.30;;
12758;SDS011;20944;47.048;15.390;2023-04-25T08:32:01;0.23;;;0.23;;
12758;SDS011;20944;47.048;15.390;2023-04-25T08:34:31;0.33;;;0.30;;
12758;SDS011;20944;47.048;15.390;2023-04-25T08:36:59;0.53;;;0.20;;
12758;SDS011;20944;47.048;15.390;2023-04-25T08:39:27;0.57;;;0.30;;
12758;SDS011;20944;47.048;15.390;2023-04-25T08:41:56;0.50;;;0.20;;
12758;SDS011;20944;47.048;15.390;2023-04-25T08:44:24;0.75;;;0.20;;
12758;SDS011;20944;47.048;15.390;2023-04-25T08:46:53;0.20;;;0.20;;
12758;SDS011;20944;47.048;15.390;2023-04-25T08:49:23;0.10;;;0.10;;
12758;SDS011;20944;47.048;15.390;2023-04-25T08:51:54;0.40;;;0.20;;
12758;SDS011;20944;47.048;15.390;2023-04-25T08:54:27;0.10;;;0.10;;
12758;SDS011;20944;47.048;15.390;2023-04-25T08:57:02;0.87;;;0.27;;
12758;SDS011;20944;47.048;15.390;2023-04-25T08:59:32;0.40;;;0.33;;
12758;SDS011;20944;47.048;15.390;2023-04-25T09:02:03;0.30;;;0.20;;
12758;SDS011;20944;47.048;15.390;2023-04-25T09:04:31;0.17;;;0.10;;
12758;SDS011;20944;47.048;15.390;2023-04-25T09:07:01;0.20;;;0.20;;
12758;SDS011;20944;47.048;15.390;2023-04-25T09:09:29;0.60;;;0.23;;
12758;SDS011;20944;47.048;15.390;2023-04-25T09:11:57;1.80;;;0.20;;
12758;SDS011;20944;47.048;15.390;2023-04-25T09:14:28;0.30;;;0.20;;
12758;SDS011;20944;47.048;15.390;2023-04-25T09:16:57;0.27;;;0.27;;
12758;SDS011;20944;47.048;15.390;2023-04-25T09:19:29;0.50;;;0.30;;
12758;SDS011;20944;47.048;15.390;2023-04-25T09:22:04;0.10;;;0.10;;
12758;SDS011;20944;47.048;15.390;2023-04-25T09:24:33;0.20;;;0.20;;
12758;SDS011;20944;47.048;15.390;2023-04-25T09:27:03;0.30;;;0.10;;
12758;SDS011;20944;47.048;15.390;2023-04-25T09:29:33;0.43;;;0.20;;
12758;SDS011;20944;47.048;15.390;2023-04-25T09:32:13;0.75;;;0.30;;
12758;SDS011;20944;47.048;15.390;2023-04-25T09:34:44;0.10;;;0.10;;
12758;SDS011;20944;47.048;15.390;2023-04-25T09:37:19;0.47;;;0.30;;
12758;SDS011;20944;47.048;15.390;2023-04-25T09:39:50;2.03;;;0.30;;
12758;SDS011;20944;47.048;15.390;2023-04-25T09:42:21;0.20;;;0.20;;
12758;SDS011;20944;47.048;15.390;2023-04-25T09:44:51;1.65;;;0.20;;
12758;SDS011;20944;47.048;15.390;2023-04-25T09:47:20;0.10;;;0.10;;
12758;SDS011;20944;47.048;15.390;2023-04-25T09:49:51;0.30;;;0.30;;
12758;SDS011;20944;47.048;15.390;2023-04-25T09:52:23;0.87;;;0.20;;
12758;SDS011;20944;47.048;15.390;2023-04-25T09:54:52;0.60;;;0.20;;
12758;SDS011;20944;47.048;15.390;2023-04-25T09:57:21;0.10;;;0.10;;
12758;SDS011;20944;47.048;15.390;2023-04-25T09:59:50;0.23;;;0.20;;
12758;SDS011;20944;47.048;15.390;2023-04-25T10:02:20;0.40;;;0.23;;
12758;SDS011;20944;47.048;15.390;2023-04-25T10:04:49;0.30;;;0.30;;
12758;SDS011;20944;47.048;15.390;2023-04-25T10:07:23;0.20;;;0.20;;
12758;SDS011;20944;47.048;15.390;2023-04-25T10:09:55;0.28;;;0.28;;
12758;SDS011;20944;47.048;15.390;2023-04-25T10:12:28;0.10;;;0.10;;
12758;SDS011;20944;47.048;15.390;2023-04-25T10:14:57;0.33;;;0.20;;
12758;SDS011;20944;47.048;15.390;2023-04-25T10:17:27;0.23;;;0.20;;
12758;SDS011;20944;47.048;15.390;2023-04-25T10:19:55;0.23;;;0.20;;
12758;SDS011;20944;47.048;15.390;2023-04-25T10:22:29;0.20;;;0.20;;
12758;SDS011;20944;47.048;15.390;2023-04-25T10:25:00;0.20;;;0.20;;
12758;SDS011;20944;47.048;15.390;2023-04-25T10:27:30;0.60;;;0.30;;
12758;SDS011;20944;47.048;15.390;2023-04-25T10:30:02;0.30;;;0.30;;
12758;SDS011;20944;47.048;15.390;2023-04-25T10:32:33;0.20;;;0.10;;
12758;SDS011;20944;47.048;15.390;2023-04-25T10:38:02;0.20;;;0.20;;
12758;SDS011;20944;47.048;15.390;2023-04-25T10:40:32;0.47;;;0.20;;
12758;SDS011;20944;47.048;15.390;2023-04-25T10:46:12;0.20;;;0.20;;
12758;SDS011;20944;47.048;15.390;2023-04-25T10:48:46;0.20;;;0.20;;
12758;SDS011;20944;47.048;15.390;2023-04-25T10:51:17;0.30;;;0.30;;
12758;SDS011;20944;47.048;15.390;2023-04-25T10:53:56;0.20;;;0.20;;
12758;SDS011;20944;47.048;15.390;2023-04-25T10:56:25;0.50;;;0.20;;
12758;SDS011;20944;47.048;15.390;2023-04-25T10:59:04;0.20;;;0.17;;
12758;SDS011;20944;47.048;15.390;2023-04-25T11:01:38;0.73;;;0.20;;
12758;SDS011;20944;47.048;15.390;2023-04-25T11:04:18;0.65;;;0.45;;
12758;SDS011;20944;47.048;15.390;2023-04-25T11:06:54;0.20;;;0.20;;
12758;SDS011;20944;47.048;15.390;2023-04-25T11:09:35;0.20;;;0.20;;
12758;SDS011;20944;47.048;15.390;2023-04-25T11:12:04;0.10;;;0.10;;
12758;SDS011;20944;47.048;15.390;2023-04-25T11:14:35;1.65;;;0.20;;
12758;SDS011;20944;47.048;15.390;2023-04-25T11:17:08;0.20;;;0.20;;
12758;SDS011;20944;47.048;15.390;2023-04-25T11:19:37;0.30;;;0.22;;
12758;SDS011;20944;47.048;15.390;2023-04-25T11:22:06;0.20;;;0.20;;
12758;SDS011;20944;47.048;15.390;2023-04-25T11:24:35;0.32;;;0.15;;
12758;SDS011;20944;47.048;15.390;2023-04-25T11:27:04;0.20;;;0.20;;
12758;SDS011;20944;47.048;15.390;2023-04-25T11:29:33;1.00;;;0.30;;
12758;SDS011;20944;47.048;15.390;2023-04-25T11:32:02;0.22;;;0.22;;
12758;SDS011;20944;47.048;15.390;2023-04-25T11:34:31;0.30;;;0.20;;
12758;SDS011;20944;47.048;15.390;2023-04-25T11:37:00;0.20;;;0.20;;
12758;SDS011;20944;47.048;15.390;2023-04-25T11:39:29;0.55;;;0.20;;
12758;SDS011;20944;47.048;15.390;2023-04-25T11:41:59;0.40;;;0.40;;
12758;SDS011;20944;47.048;15.390;2023-04-25T11:44:32;2.75;;;0.20;;
12758;SDS011;20944;47.048;15.390;2023-04-25T11:47:01;0.38;;;0.20;;
12758;SDS011;20944;47.048;15.390;2023-04-25T11:49:30;1.05;;;0.20;;
12758;SDS011;20944;47.048;15.390;2023-04-25T11:51:58;0.38;;;0.20;;
12758;SDS011;20944;47.048;15.390;2023-04-25T11:54:27;0.20;;;0.20;;
12758;SDS011;20944;47.048;15.390;2023-04-25T11:56:55;0.13;;;0.10;;
12758;SDS011;20944;47.048;15.390;2023-04-25T11:59:25;0.20;;;0.20;;
12758;SDS011;20944;47.048;15.390;2023-04-25T12:01:54;0.30;;;0.10;;
12758;SDS011;20944;47.048;15.390;2023-04-25T12:04:24;0.67;;;0.20;;
12758;SDS011;20944;47.048;15.390;2023-04-25T12:06:53;0.63;;;0.20;;
12758;SDS011;20944;47.048;15.390;2023-04-25T12:09:27;0.97;;;0.20;;
12758;SDS011;20944;47.048;15.390;2023-04-25T12:11:57;0.10;;;0.10;;
12758;SDS011;20944;47.048;15.390;2023-04-25T12:14:31;0.57;;;0.10;;
12758;SDS011;20944;47.048;15.390;2023-04-25T12:17:02;0.30;;;0.10;;
12758;SDS011;20944;47.048;15.390;2023-04-25T12:19:34;0.20;;;0.20;;
12758;SDS011;20944;47.048;15.390;2023-04-25T12:22:18;0.20;;;0.20;;
12758;SDS011;20944;47.048;15.390;2023-04-25T12:24:47;0.30;;;0.20;;
12758;SDS011;20944;47.048;15.390;2023-04-25T12:27:16;0.20;;;0.10;;
12758;SDS011;20944;47.048;15.390;2023-04-25T12:29:52;0.10;;;0.10;;
12758;SDS011;20944;47.048;15.390;2023-04-25T12:32:21;0.20;;;0.20;;
12758;SDS011;20944;47.048;15.390;2023-04-25T12:34:50;0.50;;;0.20;;
12758;SDS011;20944;47.048;15.390;2023-04-25T12:37:18;1.13;;;0.30;;
12758;SDS011;20944;47.048;15.390;2023-04-25T12:39:46;0.60;;;0.20;;
12758;SDS011;20944;47.048;15.390;2023-04-25T12:42:14;0.30;;;0.30;;
12758;SDS011;20944;47.048;15.390;2023-04-25T12:44:42;1.77;;;0.20;;
12758;SDS011;20944;47.048;15.390;2023-04-25T12:47:12;0.10;;;0.10;;
12758;SDS011;20944;47.048;15.390;2023-04-25T12:49:41;0.20;;;0.20;;
12758;SDS011;20944;47.048;15.390;2023-04-25T12:52:09;0.10;;;0.10;;
12758;SDS011;20944;47.048;15.390;2023-04-25T12:54:38;0.20;;;0.20;;
12758;SDS011;20944;47.048;15.390;2023-04-25T12:57:06;0.20;;;0.20;;
12758;SDS011;20944;47.048;15.390;2023-04-25T12:59:35;0.20;;;0.20;;
12758;SDS011;20944;47.048;15.390;2023-04-25T13:02:03;0.10;;;0.10;;
12758;SDS011;20944;47.048;15.390;2023-04-25T13:04:33;0.10;;;0.10;;
12758;SDS011;20944;47.048;15.390;2023-04-25T13:07:01;0.33;;;0.20;;
12758;SDS011;20944;47.048;15.390;2023-04-25T13:09:30;0.15;;;0.15;;
12758;SDS011;20944;47.048;15.390;2023-04-25T13:11:59;1.10;;;0.20;;
12758;SDS011;20944;47.048;15.390;2023-04-25T13:14:27;0.68;;;0.20;;
12758;SDS011;20944;47.048;15.390;2023-04-25T13:16:55;0.57;;;0.17;;
12758;SDS011;20944;47.048;15.390;2023-04-25T13:19:24;0.10;;;0.10;;
12758;SDS011;20944;47.048;15.390;2023-04-25T13:21:54;0.38;;;0.20;;
12758;SDS011;20944;47.048;15.390;2023-04-25T13:24:22;0.10;;;0.10;;
12758;SDS011;20944;47.048;15.390;2023-04-25T13:26:51;0.10;;;0.10;;
12758;SDS011;20944;47.048;15.390;2023-04-25T13:29:19;0.10;;;0.10;;
12758;SDS011;20944;47.048;15.390;2023-04-25T13:31:47;0.60;;;0.20;;
12758;SDS011;20944;47.048;15.390;2023-04-25T13:34:16;0.30;;;0.30;;
12758;SDS011;20944;47.048;15.390;2023-04-25T13:36:44;0.47;;;0.17;;
12758;SDS011;20944;47.048;15.390;2023-04-25T13:39:14;0.47;;;0.20;;
12758;SDS011;20944;47.048;15.390;2023-04-25T13:41:42;0.20;;;0.20;;
12758;SDS011;20944;47.048;15.390;2023-04-25T13:44:10;0.20;;;0.20;;
12758;SDS011;20944;47.048;15.390;2023-04-25T13:46:39;3.05;;;0.20;;
12758;SDS011;20944;47.048;15.390;2023-04-25T13:49:12;0.85;;;0.20;;
12758;SDS011;20944;47.048;15.390;2023-04-25T13:51:41;0.20;;;0.20;;
12758;SDS011;20944;47.048;15.390;2023-04-25T13:54:09;0.22;;;0.20;;
12758;SDS011;20944;47.048;15.390;2023-04-25T13:56:39;0.63;;;0.30;;
12758;SDS011;20944;47.048;15.390;2023-04-25T13:59:09;0.77;;;0.10;;
12758;SDS011;20944;47.048;15.390;2023-04-25T14:01:37;0.20;;;0.20;;
12758;SDS011;20944;47.048;15.390;2023-04-25T14:04:06;0.10;;;0.10;;
12758;SDS011;20944;47.048;15.390;2023-04-25T14:06:34;0.20;;;0.20;;
12758;SDS011;20944;47.048;15.390;2023-04-25T14:09:03;1.13;;;0.20;;
12758;SDS011;20944;47.048;15.390;2023-04-25T14:11:33;0.20;;;0.20;;
12758;SDS011;20944;47.048;15.390;2023-04-25T14:14:03;0.63;;;0.20;;
12758;SDS011;20944;47.048;15.390;2023-04-25T14:16:31;0.30;;;0.20;;
12758;SDS011;20944;47.048;15.390;2023-04-25T14:19:00;0.13;;;0.13;;
12758;SDS011;20944;47.048;15.390;2023-04-25T14:21:29;0.13;;;0.13;;
12758;SDS011;20944;47.048;15.390;2023-04-25T14:23:59;1.13;;;0.20;;
12758;SDS011;20944;47.048;15.390;2023-04-25T14:26:27;0.43;;;0.27;;
12758;SDS011;20944;47.048;15.390;2023-04-25T14:28:55;0.10;;;0.10;;
12758;SDS011;20944;47.048;15.390;2023-04-25T14:31:25;0.17;;;0.17;;
12758;SDS011;20944;47.048;15.390;2023-04-25T14:33:53;0.17;;;0.17;;
12758;SDS011;20944;47.048;15.390;2023-04-25T14:36:25;0.20;;;0.20;;
12758;SDS011;20944;47.048;15.390;2023-04-25T14:38:53;0.20;;;0.20;;
12758;SDS011;20944;47.048;15.390;2023-04-25T14:41:22;0.30;;;0.20;;
12758;SDS011;20944;47.048;15.390;2023-04-25T14:43:51;0.80;;;0.13;;
12758;SDS011;20944;47.048;15.390;2023-04-25T14:46:20;1.20;;;0.10;;
12758;SDS011;20944;47.048;15.390;2023-04-25T14:48:51;0.27;;;0.20;;
12758;SDS011;20944;47.048;15.390;2023-04-25T14:51:19;0.10;;;0.10;;
12758;SDS011;20944;47.048;15.390;2023-04-25T14:53:48;0.73;;;0.20;;